Terminal Aerodrome Forecast
Issued by NWS

Home | Current Version | Previous Version | Text Only | Print | Product List | Glossary On
Versions: 1 2 3 4 5 6 7 8 9 10 11 12 13 14 15 16 17 18 19
000
FTUS43 KDVN 191124
TAFBRL
TAF
KBRL 191124Z 1912/2012 35008KT P6SM OVC025
      TEMPO 1912/1915 BKN035
     FM191500 36009KT P6SM BKN035
     FM191900 36008KT P6SM FEW035 SCT250
     FM200900 02006KT P6SM SCT070 OVC150=

USA.gov is the U.S. government's official web portal to all federal, state and local government web resources and services.